Clarence - northern half: Past 24 Hour Conditions

 

Whale Cove Airport

11:00 PM CST 25 November 2014
This table is a summary of hourly weather conditions for the past 24 hours.
Date / Time
(CST)
Wind(knots) Conditions Visibility(km) Pressure(kPa) Air tempC) Relative humidity(%) Dew pointC) Wind Chill
25 November 2014
23:00 NNW 21 N/A N/A 101.4 -27 75 -31 -44
22:00 NNW 19 N/A N/A 101.4 -28 75 -31 -44
21:00 NW 14 N/A N/A 101.4 -29 73 -32 -43
20:00 NW 12 gust 19 N/A N/A 101.4 -29 72 -33 -42
19:00 NW 19 N/A N/A 101.4 -29 72 -33 -46
18:00 NW 19 N/A N/A 101.4 -29 72 -33 -46
17:00 NW 16 gust 21 N/A N/A 101.4 -30 72 -33 -45
16:00 NW 20 Ice Crystals 24 101.4 -29 72 -33 -46
15:00 NW 19 gust 26 Ice Crystals 24 101.3 -29 72 -32 -45
14:00 NW 18 Ice Crystals 24 101.3 -28 73 -32 -44
13:00 NW 17 Ice Crystals 24 101.2 -28 73 -31 -43
12:00 NW 19 Ice Crystals 24 101.2 -27 73 -31 -43
11:00 NW 21 Ice Crystals 24 101.1 -27 74 -31 -44
10:00 NW 19 Ice Crystals 19 101.2 -28 74 -31 -44
9:00 NNW 19 Ice Crystals 16 101.1 -28 75 -31 -44
8:00 NNW 16 Ice Crystals 10 101.1 -27 75 -31 -42
7:00 NNW 12 N/A N/A 101.1 -28 75 -31 -42
6:00 NW 16 N/A N/A 101.0 -29 74 -32 -44
5:00 NW 17 N/A N/A 101.0 -30 73 -33 -45
4:00 NNW 12 gust 18 N/A N/A 101.0 -30 73 -33 -44
3:00 NNW 11 gust 18 N/A N/A 101.0 -31 72 -34 -43
2:00 NNW 16 N/A N/A 100.9 -31 72 -34 -46
1:00 NNW 20 N/A N/A 100.9 -31 72 -35 -48
0:00 NW 14 N/A N/A 100.9 -31 72 -35 -46
24 November 2014
23:00 NW 12 gust 20 N/A N/A 100.9 -31 72 -35 -46
 
Map of Arctic - Eastern Arctic marine weather areas Baker Lake Airport Chesterfield Inlet Airport Coral Harbour Airport Gjoa Haven Airport Kugaaruk Airport Rankin Inlet Airport Shepherd Bay Airport Whale Cove Airport Arctic Bay Brevoort Island Qikiqtarjuaq Airport Cape Dorset Airport Cape Dyer Cape Hooper Clyde Airport Grise Fiord Airport Hall Beach Airport Igloolik Airport Iqaluit Airport Longstaff Bluff Pangnirtung Airport Pond Inlet Airport Repulse Bay Airport Resolute Airport Resolution Island Rowley Island Airport Taloyoak Airport Wager Bay Akulivik Airport Ivujivik Airport Puvirnituq Airport Kangiqsujuaq Airport Kangirsuk Airport Quaqtaq Airport Tasiujaq Airport Cape Kakkiviak Cape Kiglapait Nain Airport Saglek Cape Mercy Kimmirut Airport Aupaluk Airport Salluit Airport Kangiqsualujjuaq Airport Fort Ross
Legend: buoyBuoy land stationLand Station